Badger, South Dakota
Current Conditions -  °F | °C
As of 12:02 PM on Sunday 21 Dec 2014 (Local Time) from KATY Reporting Station
Haze Haze  
Wind Chill: 20°   Ceiling: 200
Heat Index: 31°   Visibility: 2.5mi
Dew Point: 31°   Wind: 15mph
Humidity: 100%   Direction: 180°S
Pressure: 29.63"   Gusts: NA
Location:  44.49°N, 97.2°W
Report Text: KATY 211802Z AUTO 18013KT 2 1/2SM BR OVC002 M01/M01 A2963 RMK AO2 T10061006
Loading
Personal Weather Stations






























Interactive Weather Map New forecast layout! Learn more

10-Day Weather Forecast

Advertisements
Track Severe Weather on mobile